Terminal Aerodrome Forecast
Issued by NWS

Home | Current Version | Previous Version | Text Only | Print | Product List | Glossary Off
Versions: 1 2 3 4 5 6 7 8 9 10 11 12 13 14 15 16 17 18 19 20 21 22 23 24 25

000
FTUS45 KGGW 220100 AAA
TAFGDV
TAF AMD
KGDV 220101Z 2201/2224 VRB06KT P6SM VCSH OVC040
      TEMPO 2201/2204 3/4SM -SN BR BKN025
     FM220600 30019KT 5SM -SN BKN010
      AMD LTD TO CLD VIS AND WIND=

USA.gov is the U.S. government's official web portal to all federal, state and local government web resources and services.